Pagrindinis puslapis
METAR-TAF:

METAR-TAF

Oro uostai :

Nuakšotas, Mauritanija

platuma: 18-18-36N, ilguma: 015-58-11W, Aukštis: 3 m

Dabartinis oras

Ataskaita buvo paskelbta 49 minutes, ne 07:30 UTC
Vėjas 12 kt iš Šiaurės
Temperatūra 18°C
Drėgmė 83%
Slėgis 1013 hPa
Matomumas: 8000 m

METAR: GQNO 230730Z 01012KT 8000 NSC 18/15 Q1013 NOSIG

Laikas: 08:19 (08:19 UTC)

Prognozė

Ataskaita buvo paskelbta 3 valandos ir 19 minutes, ne 05:00 UTC
Prognozė galioja nuo 23 metu 06 UTC su 24 metu 12 UTC
Vėjas 10 kt iš Šiaurės/Šiaurės Vakarų
Matomumas: 7000 m
Tikimybė 30% :
Laikinai
nuo 23 metu 07 UTC su 23 metu 09 UTC
Matomumas: 3500 m
Su prošvaistėmis ne aukštis 900 ft
rūkana
Tapsmas
nuo 24 metu 07 UTC su 24 metu 09 UTC
Vėjas 16 kt iš Rytų

TAF: GQNO 230500Z 2306/2412 34010KT 7000 NSC PROB30 TEMPO 2307/2309 3500 BR BKN009 BECMG 2407/2409 08016KT

Orai ataskaitas ir orų prognozės (METAR, TAF).

turimą stotys yra geltonos ir raudonos taškus žemėlapyje.

Perkelti pele per norėdami pamatyti stoties vardą.

Tada spustelėkite, norėdami matyti oro stebėjimo ir prognozės.

Norėdami pakeisti žemėlapį: spustelėkite ant žalios mygtukų su juodo kryžiaus žemyn,; žalią mygtuką su brūkšneliu, jei norite nutolinti; arba žalių rodyklių gretimoms žemėlapius.


METAR-TAF: